Disclaimer

Please do not use the information listed here in-flight or in-navigation, as they are not provided to us by the airports but are provided by volunteers, so they might be outdated.

Search


Regions


Airport information page

Radio informations:
Ground (GND) - 121.85 MHz
Automatic Terminal Information Service (ATIS) - 127.475 MHz

Airport informations:
Latitude: 48° 45' 06.92" N
Longitude: 002° 06' 22.28" E
Elevation: 538 feet - 164 meters
Operating hours: Remarks
Operating agency: Civil government, landing fees and diplomatic clearance may be required
Timezone: UTC+1(+2DT) - Last Sunday in March to last Sunday in October
Fuel: Jet A1, without icing nhibitor.

100/130 octane gasoline, leaded, MIL-L-5572F (GREEN)

Runway information:
07R/25L - 3445 x 98 feet< - >1050 x 30 meters
07L/25R - 3609 x 98 feet< - >1100 x 30 meters

Recent METARs:
LFPN 180830Z AUTO 08010KT 040V100 CAVOK 03/M02 Q1022 NOSIG
LFPN 180900Z AUTO 07010KT CAVOK 04/M02 Q1022 NOSIG
LFPN 180930Z AUTO 09011KT CAVOK 04/M02 Q1022 NOSIG

Airport on the map: